CheckWX is a tool to help pilots better visualize weather data.  It is not intended as a substitute for an official pre-flight weather briefing.

20:25:31 UTC

EGWU METAR
RAF Northolt Airport
London, United Kingdom
Current

36 mins ago

EGWU 191950Z AUTO 28002KT 9999 // NCD 07/06 Q1004
Observed
Oct-19 @ 19:50 UTC
Wind
  • 280° at 2 KTS
Visibility
10,000+ meters
Flight Rules
VFR
Cloud Levels
  • Clear skies
Temperature
C / 45°F
Dewpoint
C / 43°F
Humidity
93%
Altimeter
29.65" Hg
Pressure
1003.92 hPa
Previous

2 hours ago

EGWU 191850Z AUTO 23002KT 9999 // FEW041/// 10/07 Q1003
Observed
Oct-19 @ 18:50 UTC
Wind
  • 230° at 2 KTS
Visibility
10,000+ meters
Flight Rules
VFR
Cloud Levels
  • Few at 4,100' AGL
Temperature
10°C / 50°F
Dewpoint
C / 45°F
Humidity
82%
Altimeter
29.62" Hg
Pressure
1002.92 hPa
Previous

3 hours ago

EGWU 191750Z 26003KT CAVOK 11/07 Q1002 NOSIG RMK BLU BLU
Observed
Oct-19 @ 17:50 UTC
Wind
  • 260° at 3 KTS
Visibility
10,000+ meters
Flight Rules
VFR
Cloud Levels
  • Clear skies
Temperature
11°C / 52°F
Dewpoint
C / 45°F
Humidity
77%
Altimeter
29.59" Hg
Pressure
1001.92 hPa